Aérodrome :
LOGIN :

S'inscrire | Disclaimer

   EN    FR    IT 

 










Légende :    VFR   VFR Marginal   IFR   IFR Intensif   IFR Très Intensif
Visi : 
Plafond : 
>= 8 km
>= 3000ft
5 à 8 km
1000 à 3000 ft
1500m à 5 km
500 à 1000 ft
800 à 1500m
200 à 500 ft
< 800m
< 200 ft
Symboles :   Orages  Brouillard  Fortes neiges  Fortes précipitations  Vent > 20 kt
SIGMETs :   Divers  Orages  Givrage  Turbulence  Onde Orograph.  Cendres Volcan.







- Altitude de l'aérodrome : 499 ft
- Code IATA : TLS
- Voir les cartes d'approche


LFBO - Toulouse / Blagnac

DERNIER METAR :
  • 162100Z AUTO 14011KT 100V160 CAVOK 09/05 Q1025 TEMPO 13015G25KT

METARs EXPIRÉS :
  • 162030Z AUTO 14013KT CAVOK 09/03 Q1025 TEMPO 13015G25KT
  • 162000Z AUTO 14013KT CAVOK 09/03 Q1025 TEMPO 13015G25KT
  • 161930Z AUTO 14013KT CAVOK 10/04 Q1025 TEMPO 13015G25KT
  • 161900Z AUTO 14017KT CAVOK 10/03 Q1025 TEMPO 13015G25KT
  • 161830Z AUTO 14017KT CAVOK 11/03 Q1025 TEMPO 13015G25KT

TAF TAF LFBO
Valide du 16 à 18h jusqu'au 18 à 00h UTC


161700Z 1618/1724 13012KT CAVOK
TEMPO 1618/1724 13015G25KT
PROB30
TEMPO 1700/1709 BKN007
ATIS : +33 5 62 74 66 36
Pas de NOTAMs connus pour ce terrain.
2 SIGMETs publiés pour la FIR Bordeaux (LFBB) :
 
Onde orographique forte
LFBB SIGMET 2 VALID 170100/170500 LFPW
LFBB BORDEAUX FIR/UIR SEV MTW FCST WI N4230 E00045 - N4300 W00145 - N4330 W00145 - N4300 E00045 - N4230 E00045 SFC/FL200 STNR WKN=
Turbulence forte
LFBB SIGMET 1 VALID 162110/170100 LFPW
LFBB BORDEAUX FIR/UIR SEV TURB FCST WI N4230 E00045 - N4300 W00145 - N4330 W00145 - N4300 E00045 - N4230 E00045 SFC/FL100 STNR INTSF=



MET'MAP, la Météo Aéronautique d'un coup d'oeil ! - Copyright ORBIFLY Décembre 2007 - Disclaimer

ORBIFLY MET'MAP TEAM :

Programmation & Développement : Alexandra Zaïnal
Conception & Développement : Baudouin d'Aumeries
Co-Programmation & Développement : Marc-Olivier Méhu
Soutien technique & logistique : Manuel Goepfert

Contact : metmap@orbifly.com




SOURCES & CREDITS :

   NOAA